Flight Track Log - Related Links

Times and Time Zones

All times are in EDT time to prevent confusion due to time zone crossing. See the N865JM flight status page for this flight to view local times or setup timezone preferences in your user account.

Time Position Orientation Groundspeed Altitude Reporting Facility
EDT Latitude Longitude Course Direction KTS MPH feet Rate Location/Type
Sat 10:01:08 AM 26.7297 -79.9967 347° North 272 313 5,100  Level Miami Center
Sat 10:02:08 AM 26.8128 -80.0175 347° North 276 318 7,800 2,350 Climbing Miami Center
Sat 10:03:08 AM 26.8297 -80.0972 283° West 287 330 9,800 1,450 Climbing Miami Center
Sat 10:04:08 AM 26.8422 -80.1975 278° West 332 382 10,700 1,100 Climbing Miami Center
Sat 10:05:08 AM 26.8667 -80.3100 284° West 366 421 12,000 1,150 Climbing Miami Center
Sat 10:06:08 AM 26.9564 -80.3989 319° Northwest 360 414 13,000 500 Climbing Miami Center
Sat 10:07:08 AM 27.0467 -80.4647 327° Northwest 386 444 13,000 50 Level Miami Center
Sat 10:08:08 AM 27.1389 -80.5328 327° Northwest 393 452 13,100 50 Climbing Miami Center
Sat 10:09:08 AM 27.2208 -80.5914 328° Northwest 393 452 13,100 -50 Level Miami Center
Sat 10:10:08 AM 27.3131 -80.6575 328° Northwest 388 447 13,000  Descending Miami Center
Sat 10:11:08 AM 27.4156 -80.7311 327° Northwest 388 447 13,100  Climbing Miami Center
Sat 10:12:08 AM 27.5056 -80.7997 326° Northwest 385 443 13,000 -50 Descending Miami Center
Sat 10:13:08 AM 27.6000 -80.8639 329° Northwest 397 457 13,000 50 Level Miami Center
Sat 10:14:08 AM 27.6919 -80.9303 327° Northwest 397 457 13,100 -498 Climbing Miami Center
Sat 10:16:33 AM 27.9167 -81.1000 326° Northwest 404 465 11,300 -597 Descending Orlando TRACON
Sat 10:17:39 AM 28.0333 -81.1333 346° North 384 442 11,000 -667 Descending Orlando TRACON
Sat 10:18:39 AM 28.1000 -81.2167 312° West 328 377 9,900 -1,450 Descending Orlando TRACON
Sat 10:19:39 AM 28.1500 -81.3000 304° West 287 330 8,100 -1,850 Descending Orlando TRACON
Sat 10:20:39 AM 28.1833 -81.3667 300° West 271 312 6,200 -1,950 Descending Orlando TRACON
Sat 10:21:39 AM 28.2167 -81.4500 294° West 272 313 4,200 -1,550 Descending Orlando TRACON
Sat 10:22:39 AM 28.2667 -81.5000 319° Northwest 244 281 3,100 -1,096 Descending Orlando TRACON
Sat 10:23:34 AM 28.3167 -81.5167 344° North 225 259 2,100 -522 Descending Orlando TRACON
Sat 10:24:34 AM 28.3667 -81.5167 360° North 205 236 2,100  Level Orlando TRACON
Sat 10:25:40 AM 28.4333 -81.4833 24° Northeast 211 243 2,100 -50 Level Orlando TRACON
Sat 10:26:34 AM 28.4833 -81.4667 16° North 231 266 2,000 -209 Descending Orlando TRACON
Sat 10:27:35 AM 28.5167 -81.4167 53° Northeast 156 180 1,700 -545 Descending Orlando TRACON
Sat 10:28:35 AM 28.5333 -81.3833 60° Northeast 138 159 900 -800 Descending Orlando TRACON

Login

Don't have an account? Register now (free) for customized features, flight alerts, and more!